Time;durP1;ratioP1;P1;durP2;ratioP2;P2;SDS_P1;SDS_P2;PMS_P1;PMS_P2;Temp;Humidity;BMP_temperature;BMP_pressure;BME280_temperature;BME280_humidity;BME280_pressure;Samples;Min_cycle;Max_cycle;Signal;HPM_P1;HPM_P2
2022/03/26 00:01:41;;;;;;;27.70;18.60;;;10.10;91.60;;;;;;5017672;28;20279;-66
2022/03/26 00:04:07;;;;;;;27.77;18.90;;;10.00;92.10;;;;;;5017131;28;20205;-66
2022/03/26 00:06:32;;;;;;;28.17;18.83;;;9.90;93.00;;;;;;5011328;28;20251;-67
2022/03/26 00:08:58;;;;;;;30.33;18.40;;;9.90;93.20;;;;;;5018178;28;20214;-68
2022/03/26 00:11:24;;;;;;;29.13;19.40;;;9.90;93.30;;;;;;5025307;28;20218;-70
2022/03/26 00:13:49;;;;;;;31.07;21.57;;;9.80;94.00;;;;;;5013187;28;20264;-74
2022/03/26 00:16:15;;;;;;;32.33;21.27;;;9.80;94.30;;;;;;5017954;28;20190;-66
2022/03/26 00:18:41;;;;;;;30.43;20.53;;;9.70;94.60;;;;;;5011926;28;20208;-65
2022/03/26 00:21:07;;;;;;;26.70;19.67;;;9.70;94.80;;;;;;5013012;28;20229;-67
2022/03/26 00:23:33;;;;;;;26.03;18.40;;;9.70;95.10;;;;;;5008773;28;20202;-64
2022/03/26 00:25:59;;;;;;;29.27;20.30;;;9.60;95.60;;;;;;5019107;28;20242;-66
2022/03/26 00:28:25;;;;;;;29.03;20.63;;;9.50;95.90;;;;;;5016113;28;20205;-66
2022/03/26 00:30:51;;;;;;;27.63;20.13;;;9.50;96.50;;;;;;5017318;28;20193;-67
2022/03/26 00:33:17;;;;;;;29.13;19.73;;;9.40;96.60;;;;;;5014099;28;20559;-66
2022/03/26 00:35:43;;;;;;;32.67;23.03;;;9.40;96.90;;;;;;5012375;28;20201;-64
2022/03/26 00:38:08;;;;;;;29.27;20.30;;;9.30;97.40;;;;;;5018227;28;20182;-64
2022/03/26 00:40:34;;;;;;;31.53;21.67;;;9.30;97.60;;;;;;5017904;28;20198;-64
2022/03/26 00:43:00;;;;;;;28.53;20.37;;;9.30;98.20;;;;;;5016655;28;20638;-64
2022/03/26 00:45:29;;;;;;;28.03;19.17;;;9.20;98.30;;;;;;5012782;28;20197;-66
2022/03/26 00:47:55;;;;;;;34.40;20.53;;;9.20;98.30;;;;;;5014399;28;20212;-65
2022/03/26 00:50:20;;;;;;;29.57;19.40;;;9.20;98.50;;;;;;5015577;28;20194;-65
2022/03/26 00:52:47;;;;;;;26.23;19.10;;;9.20;98.90;;;;;;5014921;28;20237;-75
2022/03/26 00:55:12;;;;;;;25.33;19.63;;;9.20;99.20;;;;;;5014937;28;20221;-63
2022/03/26 00:57:38;;;;;;;31.30;19.43;;;9.20;99.40;;;;;;5012482;28;20201;-65
2022/03/26 01:00:06;;;;;;;33.07;18.23;;;9.10;99.70;;;;;;5017211;28;20718;-65
2022/03/26 01:02:31;;;;;;;29.67;20.53;;;9.10;99.90;;;;;;5014931;28;20209;-65
2022/03/26 01:04:57;;;;;;;31.57;19.13;;;9.10;99.90;;;;;;5012116;28;20782;-65
2022/03/26 01:07:23;;;;;;;26.77;19.23;;;9.10;99.90;;;;;;5013730;28;20203;-66
2022/03/26 01:09:48;;;;;;;30.87;21.43;;;9.10;99.90;;;;;;5015154;28;20198;-66
2022/03/26 01:12:14;;;;;;;31.73;20.63;;;9.10;99.90;;;;;;5012461;28;20228;-65
2022/03/26 01:14:40;;;;;;;35.63;21.03;;;9.00;99.90;;;;;;5005691;28;20212;-66
2022/03/26 01:17:05;;;;;;;30.90;19.67;;;9.00;99.90;;;;;;5009617;28;20198;-66
2022/03/26 01:19:31;;;;;;;27.83;20.47;;;8.90;99.90;;;;;;5007289;28;20195;-66
2022/03/26 01:21:56;;;;;;;28.20;19.03;;;8.90;99.90;;;;;;5010849;28;20202;-66
2022/03/26 01:24:22;;;;;;;33.93;21.43;;;8.90;99.90;;;;;;5006574;28;20265;-64
2022/03/26 01:26:47;;;;;;;34.83;20.83;;;8.90;99.90;;;;;;5010422;28;20239;-65
2022/03/26 01:29:13;;;;;;;29.70;19.37;;;8.80;99.90;;;;;;5017072;28;20672;-65
2022/03/26 01:31:38;;;;;;;28.80;20.10;;;8.80;99.90;;;;;;5004044;28;20220;-66
2022/03/26 01:34:04;;;;;;;27.63;19.87;;;8.80;99.90;;;;;;5010654;28;20675;-64
2022/03/26 01:36:30;;;;;;;29.00;19.77;;;8.80;99.90;;;;;;5009145;28;20205;-65
2022/03/26 01:38:55;;;;;;;29.30;19.63;;;8.80;99.90;;;;;;4997876;28;20236;-65
2022/03/26 01:41:21;;;;;;;32.90;20.13;;;8.70;99.90;;;;;;5006245;28;20241;-65
2022/03/26 01:43:47;;;;;;;33.47;20.83;;;8.70;99.90;;;;;;5012828;28;20200;-63
2022/03/26 01:46:12;;;;;;;27.50;20.63;;;8.70;99.90;;;;;;5007250;28;20749;-65
2022/03/26 01:48:39;;;;;;;33.17;18.63;;;8.70;99.90;;;;;;5011155;28;20196;-64
2022/03/26 01:51:17;;;;;;;29.90;20.03;;;8.70;99.90;;;;;;5013095;28;20674;-64
2022/03/26 01:53:51;;;;;;;32.73;21.07;;;8.60;99.90;;;;;;5016393;28;20191;-64
2022/03/26 01:56:19;;;;;;;28.50;19.47;;;8.60;99.90;;;;;;5011496;28;20207;-64
2022/03/26 01:58:45;;;;;;;113.77;55.33;;;8.60;99.90;;;;;;5016260;28;20196;-64
2022/03/26 02:01:10;;;;;;;28.97;20.27;;;8.50;99.90;;;;;;5013305;28;20611;-64
2022/03/26 02:03:36;;;;;;;30.07;20.30;;;8.60;99.90;;;;;;5012432;28;20863;-64
2022/03/26 02:06:02;;;;;;;32.17;20.47;;;8.50;99.90;;;;;;5012853;28;20636;-63
2022/03/26 02:08:28;;;;;;;31.10;19.30;;;8.50;99.90;;;;;;5015980;28;20194;-64
2022/03/26 02:10:54;;;;;;;33.43;21.37;;;8.50;99.90;;;;;;5018815;28;20191;-66
2022/03/26 02:13:19;;;;;;;30.83;20.10;;;8.50;99.90;;;;;;5012911;28;20262;-67
2022/03/26 02:15:45;;;;;;;33.20;21.50;;;8.50;99.90;;;;;;5012027;28;20681;-66
2022/03/26 02:18:11;;;;;;;35.33;20.53;;;8.50;99.90;;;;;;5011984;28;20238;-64
2022/03/26 02:20:37;;;;;;;29.00;21.20;;;8.50;99.90;;;;;;5019834;28;20193;-65
2022/03/26 02:23:03;;;;;;;35.23;19.80;;;8.50;99.90;;;;;;5007586;28;20222;-65
2022/03/26 02:25:28;;;;;;;36.73;19.80;;;8.50;99.90;;;;;;5015925;28;20874;-66
2022/03/26 02:27:54;;;;;;;38.20;22.63;;;8.50;99.90;;;;;;5008721;28;20689;-66
2022/03/26 02:30:21;;;;;;;35.17;21.30;;;8.40;99.90;;;;;;5020812;28;20221;-64
2022/03/26 02:32:46;;;;;;;36.83;20.43;;;8.40;99.90;;;;;;5022554;28;20228;-65
2022/03/26 02:35:13;;;;;;;35.53;22.00;;;8.40;99.90;;;;;;5020924;28;20207;-67
2022/03/26 02:37:39;;;;;;;38.67;21.87;;;8.30;99.90;;;;;;5015658;28;20256;-66
2022/03/26 02:40:07;;;;;;;32.77;19.97;;;8.30;99.90;;;;;;5020142;28;20244;-65
2022/03/26 02:42:34;;;;;;;28.30;19.07;;;8.20;99.90;;;;;;5018845;28;20208;-65
2022/03/26 02:45:00;;;;;;;32.87;20.73;;;8.20;99.90;;;;;;5017169;28;20237;-66
2022/03/26 02:47:25;;;;;;;29.23;20.60;;;8.20;99.90;;;;;;5019408;28;20694;-66
2022/03/26 02:49:51;;;;;;;32.83;20.27;;;8.20;99.90;;;;;;5011742;28;20206;-66
2022/03/26 02:52:17;;;;;;;33.93;20.53;;;8.20;99.90;;;;;;5012312;28;20259;-67
2022/03/26 02:54:42;;;;;;;33.07;21.20;;;8.20;99.90;;;;;;5025161;28;20189;-67
2022/03/26 02:57:08;;;;;;;34.30;19.70;;;8.20;99.90;;;;;;5011924;28;20246;-68
2022/03/26 02:59:33;;;;;;;34.73;20.60;;;8.10;99.90;;;;;;5017084;28;20212;-68
2022/03/26 03:01:59;;;;;;;31.80;20.27;;;8.20;99.90;;;;;;5006266;28;20208;-67
2022/03/26 03:04:25;;;;;;;29.90;20.80;;;8.20;99.90;;;;;;5020407;28;20207;-67
2022/03/26 03:06:51;;;;;;;38.83;22.67;;;8.10;99.90;;;;;;5019901;28;20271;-67
2022/03/26 03:09:17;;;;;;;32.97;20.13;;;8.10;99.90;;;;;;5014984;28;20541;-67
2022/03/26 03:11:43;;;;;;;32.80;21.70;;;8.10;99.90;;;;;;5015480;28;20281;-68
2022/03/26 03:14:10;;;;;;;33.43;21.27;;;8.10;99.90;;;;;;5016282;28;20193;-67
2022/03/26 03:16:36;;;;;;;31.20;21.33;;;8.00;99.90;;;;;;5005644;28;20292;-67
2022/03/26 03:19:05;;;;;;;34.00;21.53;;;8.00;99.90;;;;;;5017181;28;20639;-67
2022/03/26 03:21:32;;;;;;;32.50;21.93;;;7.90;99.90;;;;;;5021683;28;20226;-67
2022/03/26 03:23:57;;;;;;;34.80;23.30;;;7.90;99.90;;;;;;5012064;28;20694;-67
2022/03/26 03:26:23;;;;;;;29.07;20.40;;;7.80;99.90;;;;;;5014510;28;20236;-67
2022/03/26 03:28:48;;;;;;;31.13;21.43;;;7.80;99.90;;;;;;5024153;28;20207;-67
2022/03/26 03:31:14;;;;;;;33.03;19.30;;;7.80;99.90;;;;;;5008430;28;20203;-67
2022/03/26 03:33:39;;;;;;;31.13;22.23;;;7.80;99.90;;;;;;5014411;28;20307;-67
2022/03/26 03:36:05;;;;;;;30.07;20.60;;;7.70;99.90;;;;;;5018176;28;20217;-67
2022/03/26 03:38:31;;;;;;;33.83;22.60;;;7.70;99.90;;;;;;5009960;28;20818;-67
2022/03/26 03:40:57;;;;;;;34.67;22.50;;;7.70;99.90;;;;;;5019859;28;20192;-67
2022/03/26 03:43:23;;;;;;;34.53;22.27;;;7.60;99.90;;;;;;5010297;28;20207;-67
2022/03/26 03:45:49;;;;;;;39.40;24.33;;;7.60;99.90;;;;;;5019847;28;20199;-66
2022/03/26 03:48:15;;;;;;;35.30;23.77;;;7.60;99.90;;;;;;5008241;28;20215;-66
2022/03/26 03:50:40;;;;;;;37.93;22.63;;;7.50;99.90;;;;;;5010138;28;20204;-65
2022/03/26 03:53:06;;;;;;;37.80;22.37;;;7.50;99.90;;;;;;5008413;28;20212;-66
2022/03/26 03:55:31;;;;;;;38.43;23.77;;;7.40;99.90;;;;;;5013282;28;20753;-67
2022/03/26 03:57:57;;;;;;;39.13;23.90;;;7.40;99.90;;;;;;5006152;28;20711;-67
2022/03/26 04:00:22;;;;;;;32.10;23.97;;;7.40;99.90;;;;;;5009572;28;20219;-66
2022/03/26 04:02:48;;;;;;;31.90;21.43;;;7.30;99.90;;;;;;5017654;28;20292;-67
2022/03/26 04:05:13;;;;;;;36.00;22.93;;;7.30;99.90;;;;;;5023171;28;20246;-67
2022/03/26 04:07:40;;;;;;;39.77;23.13;;;7.30;99.90;;;;;;5015423;28;20939;-64
2022/03/26 04:10:07;;;;;;;38.77;23.37;;;7.30;99.90;;;;;;5017101;28;20246;-64
2022/03/26 04:12:34;;;;;;;41.53;23.60;;;7.20;99.90;;;;;;5015929;28;20224;-64
2022/03/26 04:15:00;;;;;;;39.57;23.97;;;7.30;99.90;;;;;;5015961;28;20223;-64
2022/03/26 04:17:25;;;;;;;39.90;25.57;;;7.30;99.90;;;;;;5012053;28;20745;-64
2022/03/26 04:19:51;;;;;;;41.50;26.30;;;7.20;99.90;;;;;;5018327;28;20182;-64
2022/03/26 04:22:16;;;;;;;37.13;23.13;;;7.30;99.90;;;;;;5014587;28;20208;-65
2022/03/26 04:24:42;;;;;;;38.63;25.70;;;7.20;99.90;;;;;;5018025;28;20188;-65
2022/03/26 04:27:07;;;;;;;37.20;23.97;;;7.20;99.90;;;;;;5015690;28;20232;-66
2022/03/26 04:29:33;;;;;;;34.27;24.43;;;7.20;99.90;;;;;;5012100;28;20188;-64
2022/03/26 04:31:59;;;;;;;39.97;25.30;;;7.20;99.90;;;;;;5020626;28;20251;-65
2022/03/26 04:34:25;;;;;;;34.93;22.83;;;7.20;99.90;;;;;;5015376;28;20196;-66
2022/03/26 04:36:51;;;;;;;35.93;25.30;;;7.20;99.90;;;;;;5004944;28;20247;-65
2022/03/26 04:39:16;;;;;;;37.20;25.40;;;7.20;99.90;;;;;;5014360;28;20188;-67
2022/03/26 04:41:42;;;;;;;47.70;27.87;;;7.20;99.90;;;;;;5011087;28;20663;-67
2022/03/26 04:44:08;;;;;;;38.93;25.30;;;7.20;99.90;;;;;;5015422;28;20308;-68
2022/03/26 04:46:34;;;;;;;33.30;25.33;;;7.10;99.90;;;;;;5018295;28;20204;-68
2022/03/26 04:49:00;;;;;;;46.07;25.77;;;7.10;99.90;;;;;;5015991;28;20188;-69
2022/03/26 04:51:25;;;;;;;38.30;25.77;;;7.10;99.90;;;;;;5022718;28;20218;-68
2022/03/26 04:53:51;;;;;;;40.97;26.43;;;7.10;99.90;;;;;;5018399;28;20211;-68
2022/03/26 04:56:16;;;;;;;43.27;26.13;;;7.10;99.90;;;;;;5013339;28;20724;-69
2022/03/26 04:58:41;;;;;;;38.57;24.90;;;7.00;99.90;;;;;;5004613;28;20270;-68
2022/03/26 05:01:07;;;;;;;39.37;25.37;;;7.00;99.90;;;;;;5020161;28;20600;-68
2022/03/26 05:03:33;;;;;;;44.97;27.03;;;7.00;99.90;;;;;;5014069;28;20311;-68
2022/03/26 05:05:58;;;;;;;45.90;27.00;;;7.00;99.90;;;;;;5015339;28;20811;-68
2022/03/26 05:08:24;;;;;;;40.17;23.77;;;7.00;99.90;;;;;;5010090;28;20689;-68
2022/03/26 05:10:49;;;;;;;41.20;25.97;;;6.90;99.90;;;;;;5017598;28;20239;-68
2022/03/26 05:13:15;;;;;;;41.53;28.73;;;6.90;99.90;;;;;;5004489;28;20216;-67
2022/03/26 05:15:40;;;;;;;45.70;26.93;;;6.90;99.90;;;;;;5017401;28;20192;-68
2022/03/26 05:18:06;;;;;;;45.07;26.73;;;6.80;99.90;;;;;;5005916;28;20200;-68
2022/03/26 05:20:31;;;;;;;39.13;25.73;;;6.80;99.90;;;;;;5013843;28;20191;-68
2022/03/26 05:22:58;;;;;;;46.33;27.33;;;6.80;99.90;;;;;;5013010;28;20209;-68
2022/03/26 05:25:23;;;;;;;49.40;28.30;;;6.80;99.90;;;;;;5010524;28;20218;-67
2022/03/26 05:27:51;;;;;;;46.00;26.73;;;6.80;99.90;;;;;;5003963;28;20574;-64
2022/03/26 05:30:18;;;;;;;43.60;26.57;;;6.80;99.90;;;;;;5008957;28;20200;-65
2022/03/26 05:32:44;;;;;;;46.97;27.93;;;6.80;99.90;;;;;;5022668;28;20222;-65
2022/03/26 05:35:13;;;;;;;41.40;28.00;;;6.90;99.90;;;;;;5024658;28;20210;-65
2022/03/26 05:37:43;;;;;;;47.70;26.90;;;6.90;99.90;;;;;;5020232;28;20207;-66
2022/03/26 05:40:10;;;;;;;46.17;29.13;;;6.90;99.90;;;;;;5020280;28;20207;-65
2022/03/26 05:42:36;;;;;;;43.70;28.40;;;6.90;99.90;;;;;;5019459;28;20215;-65
2022/03/26 05:45:03;;;;;;;44.40;28.87;;;6.90;99.90;;;;;;5010730;28;20195;-65
2022/03/26 05:47:30;;;;;;;42.67;27.63;;;6.90;99.90;;;;;;5003683;28;20331;-67
2022/03/26 05:49:55;;;;;;;41.73;26.17;;;6.90;99.90;;;;;;5017129;28;20246;-67
2022/03/26 05:52:21;;;;;;;45.97;27.73;;;7.00;99.90;;;;;;5011461;28;20243;-67
2022/03/26 05:54:46;;;;;;;49.40;26.87;;;7.00;99.90;;;;;;5009144;28;20619;-65
2022/03/26 05:57:13;;;;;;;45.20;27.90;;;7.00;99.90;;;;;;5009779;28;20207;-65
2022/03/26 05:59:38;;;;;;;42.87;27.03;;;7.00;99.90;;;;;;5014807;28;20205;-65
2022/03/26 06:02:04;;;;;;;41.20;25.67;;;7.10;99.90;;;;;;5021189;28;20269;-65
2022/03/26 06:04:30;;;;;;;45.53;26.10;;;7.10;99.90;;;;;;5015583;28;20764;-66
2022/03/26 06:06:56;;;;;;;46.47;28.63;;;7.20;99.90;;;;;;5015229;28;20235;-66
2022/03/26 06:09:22;;;;;;;43.83;25.83;;;7.20;99.90;;;;;;5010083;28;20680;-67
2022/03/26 06:11:48;;;;;;;44.77;28.97;;;7.20;99.90;;;;;;5007911;28;20238;-67
2022/03/26 06:14:13;;;;;;;46.90;28.63;;;7.20;99.90;;;;;;5010345;28;20226;-65
2022/03/26 06:16:39;;;;;;;45.80;29.53;;;7.20;99.90;;;;;;5014825;28;20188;-65
2022/03/26 06:19:04;;;;;;;47.80;27.57;;;7.20;99.90;;;;;;5025019;28;20172;-65
2022/03/26 06:21:30;;;;;;;44.97;28.17;;;7.20;99.90;;;;;;5017783;28;20195;-64
2022/03/26 06:23:58;;;;;;;44.10;27.43;;;7.30;99.90;;;;;;5007843;28;20203;-66
2022/03/26 06:26:25;;;;;;;42.90;27.23;;;7.30;99.90;;;;;;5013316;28;20243;-66
2022/03/26 06:28:51;;;;;;;40.80;26.57;;;7.40;99.90;;;;;;5017509;28;20243;-65
2022/03/26 06:31:16;;;;;;;46.63;27.37;;;7.50;99.90;;;;;;5012382;28;20281;-65
2022/03/26 06:33:42;;;;;;;40.30;26.67;;;7.50;99.90;;;;;;5003428;28;20250;-66
2022/03/26 06:36:07;;;;;;;45.00;28.40;;;7.60;99.90;;;;;;5023585;28;20196;-65
2022/03/26 06:38:38;;;;;;;43.80;27.50;;;7.60;99.90;;;;;;5009099;28;20546;-65
2022/03/26 06:41:05;;;;;;;43.00;27.93;;;7.70;99.90;;;;;;5004935;28;20191;-65
2022/03/26 06:43:31;;;;;;;46.57;27.60;;;7.70;99.90;;;;;;5013039;28;20229;-65
2022/03/26 06:45:56;;;;;;;42.70;27.83;;;7.80;99.90;;;;;;5017200;28;20279;-65
2022/03/26 06:48:22;;;;;;;45.83;26.83;;;7.80;99.90;;;;;;5005726;28;20212;-65
2022/03/26 06:50:47;;;;;;;38.63;25.37;;;7.90;99.90;;;;;;5014438;28;20287;-66
2022/03/26 06:53:13;;;;;;;44.43;27.13;;;8.00;99.90;;;;;;5008920;28;20251;-66
2022/03/26 06:55:38;;;;;;;44.70;27.30;;;8.10;99.90;;;;;;5016507;28;20196;-66
2022/03/26 06:58:04;;;;;;;45.90;28.30;;;8.20;99.90;;;;;;5002427;28;20196;-64
2022/03/26 07:00:29;;;;;;;43.00;27.23;;;8.20;99.90;;;;;;5013316;28;20219;-65
2022/03/26 07:02:55;;;;;;;42.27;26.83;;;8.40;99.90;;;;;;5008697;28;20214;-66
2022/03/26 07:05:20;;;;;;;48.40;26.90;;;8.50;99.90;;;;;;5017568;28;20214;-64
2022/03/26 07:07:46;;;;;;;50.07;26.37;;;8.70;99.90;;;;;;5018636;28;20204;-63
2022/03/26 07:10:12;;;;;;;42.20;27.03;;;8.80;99.90;;;;;;5015422;28;20204;-64
2022/03/26 07:12:37;;;;;;;38.97;24.20;;;8.90;99.90;;;;;;5017955;28;20742;-64
2022/03/26 07:15:05;;;;;;;39.63;24.70;;;9.00;99.90;;;;;;5018809;28;20200;-66
2022/03/26 07:17:30;;;;;;;35.17;24.23;;;9.10;99.90;;;;;;5017050;28;20193;-66
2022/03/26 07:19:55;;;;;;;40.37;25.47;;;9.10;99.90;;;;;;5006512;28;20614;-66
2022/03/26 07:22:24;;;;;;;41.33;25.30;;;9.20;99.90;;;;;;5014587;28;20292;-66
2022/03/26 07:24:49;;;;;;;38.00;24.73;;;9.30;99.90;;;;;;5008460;28;20204;-66
2022/03/26 07:27:15;;;;;;;42.27;24.60;;;9.40;99.90;;;;;;5010488;28;20765;-65
2022/03/26 07:29:40;;;;;;;44.10;25.23;;;9.40;99.90;;;;;;5013472;28;20216;-64
2022/03/26 07:32:07;;;;;;;45.23;24.83;;;9.50;99.90;;;;;;5007562;28;20277;-65
2022/03/26 07:34:33;;;;;;;39.43;25.50;;;9.60;99.90;;;;;;5006378;28;20203;-65
2022/03/26 07:37:00;;;;;;;35.10;22.90;;;9.60;99.90;;;;;;5016714;28;20198;-65
2022/03/26 07:39:26;;;;;;;37.77;24.13;;;9.70;99.90;;;;;;5014304;28;20200;-65
2022/03/26 07:41:52;;;;;;;40.60;22.37;;;9.70;99.90;;;;;;5015605;28;20194;-65
2022/03/26 07:44:17;;;;;;;37.60;23.77;;;9.80;99.90;;;;;;5014501;28;20761;-65
2022/03/26 07:46:43;;;;;;;43.10;23.63;;;9.90;99.90;;;;;;5010309;28;20199;-65
2022/03/26 07:49:09;;;;;;;34.37;24.10;;;9.90;99.90;;;;;;5012168;28;20590;-66
2022/03/26 07:51:35;;;;;;;33.43;24.57;;;10.00;99.90;;;;;;5016947;28;20571;-65
2022/03/26 07:54:00;;;;;;;34.10;23.73;;;10.10;99.90;;;;;;5014531;28;20196;-65
2022/03/26 07:56:26;;;;;;;34.50;24.03;;;10.10;99.90;;;;;;5007045;28;20182;-64
2022/03/26 07:58:52;;;;;;;37.47;23.43;;;10.20;99.90;;;;;;5015437;28;20249;-64
2022/03/26 08:01:17;;;;;;;37.27;24.23;;;10.30;99.90;;;;;;5014302;28;20209;-65
2022/03/26 08:03:43;;;;;;;38.67;25.13;;;10.40;99.90;;;;;;5010251;28;20192;-64
2022/03/26 08:06:08;;;;;;;36.63;23.27;;;10.50;99.90;;;;;;5024342;28;20232;-65
2022/03/26 08:08:34;;;;;;;34.47;22.60;;;10.50;99.90;;;;;;5021883;28;20191;-64
2022/03/26 08:11:00;;;;;;;29.03;21.60;;;10.60;99.90;;;;;;5007412;28;20241;-65
2022/03/26 08:13:25;;;;;;;32.57;22.80;;;10.70;99.90;;;;;;5012191;28;20209;-65
2022/03/26 08:15:51;;;;;;;31.50;21.03;;;10.90;99.90;;;;;;5010927;28;20599;-65
2022/03/26 08:18:16;;;;;;;30.67;20.80;;;11.00;99.90;;;;;;5015966;28;20203;-64
2022/03/26 08:20:43;;;;;;;27.23;20.33;;;11.00;99.90;;;;;;5007621;28;20292;-65
2022/03/26 08:23:09;;;;;;;27.97;20.60;;;11.10;99.90;;;;;;5013915;28;20202;-64
2022/03/26 08:28:18;;;;;;;28.50;18.40;;;11.30;99.90;;;;;;5010453;28;20194;-66
2022/03/26 08:30:44;;;;;;;32.83;20.60;;;11.30;99.90;;;;;;5005072;28;20205;-65
2022/03/26 08:33:09;;;;;;;27.27;19.43;;;11.40;99.90;;;;;;5008370;28;20302;-64
2022/03/26 08:35:41;;;;;;;29.97;21.63;;;11.50;99.90;;;;;;5007124;28;20601;-65
2022/03/26 08:38:07;;;;;;;35.53;22.10;;;11.50;99.90;;;;;;5020792;28;20675;-63
2022/03/26 08:40:34;;;;;;;31.13;20.30;;;11.60;99.90;;;;;;5012589;28;20221;-64
2022/03/26 08:42:59;;;;;;;31.97;19.67;;;11.70;99.90;;;;;;5015600;28;20666;-65
2022/03/26 08:45:26;;;;;;;32.33;20.63;;;11.80;99.90;;;;;;5022525;28;20207;-65
2022/03/26 08:47:52;;;;;;;32.10;21.07;;;11.90;99.90;;;;;;5018888;28;20238;-65
2022/03/26 08:50:18;;;;;;;27.53;18.80;;;12.00;99.90;;;;;;5004018;28;20985;-67
2022/03/26 08:52:43;;;;;;;29.17;19.57;;;12.10;99.90;;;;;;5009606;28;20218;-67
2022/03/26 08:55:09;;;;;;;29.20;19.53;;;12.10;99.90;;;;;;5014464;28;21131;-66
2022/03/26 08:57:34;;;;;;;29.00;18.40;;;12.20;99.90;;;;;;5018304;28;20787;-65
2022/03/26 09:00:00;;;;;;;27.87;18.10;;;12.30;99.90;;;;;;5012561;28;20211;-66
2022/03/26 09:02:26;;;;;;;24.63;17.23;;;12.30;99.90;;;;;;5023970;28;20203;-66
2022/03/26 09:04:52;;;;;;;27.87;18.40;;;12.40;99.90;;;;;;5004237;28;20200;-67
2022/03/26 09:07:18;;;;;;;25.20;18.13;;;12.50;99.90;;;;;;5008426;28;20262;-66
2022/03/26 09:09:43;;;;;;;24.10;16.77;;;12.60;99.90;;;;;;5015082;28;20204;-67
2022/03/26 09:12:09;;;;;;;22.40;17.27;;;12.70;99.90;;;;;;5011650;28;20212;-66
2022/03/26 09:14:34;;;;;;;23.97;16.73;;;12.80;99.90;;;;;;5012229;28;20202;-66
2022/03/26 09:17:00;;;;;;;25.53;16.90;;;12.90;99.90;;;;;;5015602;28;20186;-66
2022/03/26 09:19:25;;;;;;;23.47;17.03;;;12.90;99.90;;;;;;5017300;28;20231;-67
2022/03/26 09:21:54;;;;;;;24.20;14.80;;;12.90;99.90;;;;;;5017823;28;20258;-66
2022/03/26 09:24:19;;;;;;;21.03;15.53;;;13.00;99.90;;;;;;5011496;28;20216;-67
2022/03/26 09:26:45;;;;;;;21.40;14.40;;;13.10;99.90;;;;;;5012440;28;20240;-68
2022/03/26 09:29:11;;;;;;;19.70;14.53;;;13.20;99.90;;;;;;5012827;28;20542;-66
2022/03/26 09:31:36;;;;;;;18.43;11.77;;;13.30;99.90;;;;;;5005667;28;20204;-67
2022/03/26 09:34:02;;;;;;;18.30;10.73;;;13.40;99.90;;;;;;5009241;28;20245;-68
2022/03/26 09:36:27;;;;;;;16.97;11.93;;;13.50;99.90;;;;;;5016054;28;20554;-66
2022/03/26 09:38:53;;;;;;;16.83;11.67;;;13.50;99.90;;;;;;5014488;28;20294;-67
2022/03/26 09:41:25;;;;;;;15.77;11.83;;;13.60;99.90;;;;;;5019884;28;20314;-67
2022/03/26 09:43:52;;;;;;;19.13;12.90;;;13.60;99.90;;;;;;5005481;28;20187;-67
2022/03/26 09:46:17;;;;;;;17.47;12.97;;;13.50;99.90;;;;;;5019389;28;20211;-67
2022/03/26 09:48:43;;;;;;;17.27;11.87;;;13.40;99.90;;;;;;5012380;28;20615;-65
2022/03/26 09:51:15;;;;;;;18.90;12.80;;;13.30;99.90;;;;;;5010651;28;20231;-66
2022/03/26 09:53:41;;;;;;;18.70;13.13;;;13.20;99.90;;;;;;5021564;28;20548;-66
2022/03/26 09:56:07;;;;;;;19.50;12.50;;;13.10;99.90;;;;;;5014680;28;20231;-65
2022/03/26 09:58:33;;;;;;;24.03;14.03;;;13.00;99.90;;;;;;5018988;28;20203;-66
2022/03/26 10:00:59;;;;;;;21.63;13.73;;;13.00;99.90;;;;;;4986173;28;20288;-66
2022/03/26 10:03:25;;;;;;;21.93;13.27;;;13.10;99.90;;;;;;5012065;28;20231;-67
2022/03/26 10:06:04;;;;;;;24.07;16.60;;;13.00;99.90;;;;;;5017588;28;20210;-65
2022/03/26 10:08:35;;;;;;;22.37;14.63;;;13.20;99.90;;;;;;5017926;28;20189;-67
2022/03/26 10:11:01;;;;;;;27.33;16.33;;;13.20;99.90;;;;;;5011584;28;20206;-65
2022/03/26 10:13:36;;;;;;;17.47;13.57;;;13.20;99.90;;;;;;5017839;28;20203;-66
2022/03/26 10:16:07;;;;;;;23.43;16.93;;;13.20;99.90;;;;;;5018262;28;20201;-65
2022/03/26 10:18:46;;;;;;;20.40;15.00;;;13.30;99.90;;;;;;5019572;28;20184;-67
2022/03/26 10:21:20;;;;;;;26.97;14.83;;;13.40;99.90;;;;;;5011021;28;20316;-65
2022/03/26 10:23:51;;;;;;;23.97;14.90;;;13.50;99.90;;;;;;5011639;28;20187;-70
2022/03/26 10:26:19;;;;;;;18.47;15.47;;;13.60;99.90;;;;;;5021493;28;20724;-70
2022/03/26 10:28:50;;;;;;;21.00;15.23;;;13.70;99.90;;;;;;5020442;28;20198;-66
2022/03/26 10:34:10;;;;;;;24.40;14.33;;;13.70;99.90;;;;;;5019439;28;20322;-67
2022/03/26 10:36:41;;;;;;;22.80;15.93;;;13.80;99.90;;;;;;5014935;28;20241;-68
2022/03/26 10:39:17;;;;;;;25.13;15.97;;;13.70;99.90;;;;;;5021632;28;20226;-66
2022/03/26 10:41:43;;;;;;;24.23;16.83;;;13.70;99.90;;;;;;5020367;28;20608;-67
2022/03/26 10:44:15;;;;;;;24.73;17.17;;;13.60;99.90;;;;;;5021163;28;20191;-68
2022/03/26 10:46:43;;;;;;;20.67;14.80;;;13.60;99.90;;;;;;5016400;28;20675;-66
2022/03/26 10:49:11;;;;;;;22.70;15.07;;;13.60;99.90;;;;;;5021882;28;20639;-66
2022/03/26 10:51:38;;;;;;;23.87;14.20;;;13.60;99.90;;;;;;5016726;28;20198;-66
2022/03/26 10:54:13;;;;;;;22.97;16.53;;;13.60;99.90;;;;;;5015117;28;20188;-65
2022/03/26 10:56:40;;;;;;;22.60;15.07;;;13.70;99.90;;;;;;5018837;28;20179;-65
2022/03/26 10:59:06;;;;;;;23.87;14.87;;;13.60;99.90;;;;;;5018742;28;20196;-68
2022/03/26 11:01:32;;;;;;;23.93;17.17;;;13.70;99.90;;;;;;5015852;28;20263;-69
2022/03/26 11:03:58;;;;;;;23.50;16.70;;;13.80;99.90;;;;;;5007609;28;20558;-67
2022/03/26 11:06:27;;;;;;;27.70;16.83;;;13.80;99.90;;;;;;5017533;28;20646;-66
2022/03/26 11:09:00;;;;;;;26.10;17.87;;;13.60;99.90;;;;;;5021595;28;20191;-66
2022/03/26 11:11:27;;;;;;;23.87;17.10;;;13.60;99.90;;;;;;5016153;28;20188;-65
2022/03/26 11:13:58;;;;;;;24.87;17.77;;;13.70;99.90;;;;;;5020805;28;20192;-65
2022/03/26 11:16:36;;;;;;;26.23;15.80;;;13.70;99.90;;;;;;5016540;28;20658;-66
2022/03/26 11:19:20;;;;;;;23.97;17.53;;;13.70;99.90;;;;;;5022312;28;20191;-66
2022/03/26 11:22:00;;;;;;;26.43;17.93;;;13.70;99.90;;;;;;5011173;28;20197;-65
2022/03/26 11:24:57;;;;;;;23.47;16.77;;;13.70;99.90;;;;;;5019073;28;20675;-66
2022/03/26 11:27:41;;;;;;;26.37;16.50;;;13.70;99.90;;;;;;5025020;28;20270;-66
2022/03/26 11:30:24;;;;;;;27.93;20.00;;;13.80;99.90;;;;;;5015706;28;20440;-73
2022/03/26 11:32:52;;;;;;;28.77;17.70;;;13.80;99.90;;;;;;5019846;28;20728;-67
2022/03/26 11:35:19;;;;;;;28.87;19.57;;;13.80;99.90;;;;;;5022052;28;20279;-67
2022/03/26 11:37:55;;;;;;;29.13;19.30;;;13.90;99.90;;;;;;5019476;28;20406;-67
2022/03/26 11:40:40;;;;;;;24.97;19.00;;;14.00;99.90;;;;;;5020615;28;20203;-66
2022/03/26 11:43:05;;;;;;;24.67;18.07;;;14.10;99.90;;;;;;5016138;28;20195;-66
2022/03/26 11:51:22;;;;;;;29.40;19.70;;;14.40;99.90;;;;;;5015636;28;20211;-65
2022/03/26 11:53:49;;;;;;;26.87;18.83;;;14.20;99.90;;;;;;5019554;28;20195;-64
2022/03/26 11:56:30;;;;;;;33.00;19.17;;;14.10;99.90;;;;;;5017300;28;20236;-65
2022/03/26 11:59:07;;;;;;;25.03;18.83;;;14.00;99.90;;;;;;5013963;28;20198;-67
2022/03/26 12:01:37;;;;;;;27.17;20.20;;;14.00;99.90;;;;;;5013141;28;20215;-66
2022/03/26 12:04:16;;;;;;;33.40;22.20;;;13.90;99.90;;;;;;5013484;28;20191;-66
2022/03/26 12:06:49;;;;;;;31.40;20.63;;;13.90;99.90;;;;;;5014703;28;20282;-66
2022/03/26 12:09:35;;;;;;;33.10;21.70;;;13.80;99.90;;;;;;5021150;28;20207;-66
2022/03/26 12:12:12;;;;;;;27.03;19.50;;;13.70;99.90;;;;;;5020209;28;20219;-67
2022/03/26 12:15:04;;;;;;;28.93;21.17;;;13.70;99.90;;;;;;5011221;28;20199;-68
2022/03/26 12:17:49;;;;;;;31.63;21.73;;;13.70;99.90;;;;;;5023411;28;20180;-66
2022/03/26 12:20:32;;;;;;;34.03;21.27;;;13.70;99.90;;;;;;5011694;28;20279;-69
2022/03/26 12:23:15;;;;;;;31.50;20.50;;;13.70;99.90;;;;;;5017370;28;20291;-68
2022/03/26 12:25:47;;;;;;;31.60;20.93;;;13.70;99.90;;;;;;5016218;28;20236;-68
2022/03/26 12:28:14;;;;;;;29.70;20.67;;;13.70;99.90;;;;;;5013865;28;20217;-67
2022/03/26 12:30:51;;;;;;;33.40;21.63;;;13.70;99.90;;;;;;5017793;28;20197;-67
2022/03/26 12:33:18;;;;;;;34.53;21.33;;;13.70;99.90;;;;;;5015065;28;20207;-67
2022/03/26 12:35:48;;;;;;;33.47;20.73;;;13.70;99.90;;;;;;5016819;28;20219;-67
2022/03/26 12:38:15;;;;;;;39.87;23.03;;;13.60;99.90;;;;;;5015744;28;20207;-69
2022/03/26 12:40:54;;;;;;;36.57;21.83;;;13.60;99.90;;;;;;5016345;28;20187;-69
2022/03/26 12:43:21;;;;;;;30.40;20.30;;;13.50;99.90;;;;;;5018103;28;20570;-68
2022/03/26 12:45:47;;;;;;;30.03;20.17;;;13.50;99.90;;;;;;5013750;28;20206;-68